Caile, Mississippi
Current Conditions -  °F | °C
As of 1:53 PM on Thursday 23 Oct 2014 (Local Time) from KGLH Reporting Station
Clear Clear  
Wind Chill: 63°   Ceiling: Unl
Heat Index: 63°   Visibility: 10mi
Dew Point: 47°   Wind: 7mph
Humidity: 56%   Direction: 350°N
Pressure: 30.13"   Gusts: NA
Location:  33.234°N, 90.6166°W
Report Text: KGLH 231853Z AUTO 35006KT 10SM CLR 17/08 A3013 RMK AO2 SLP209 T01720083
Loading
Personal Weather Stations






























Interactive Weather Map
Tropical Storm Tracking
New forecast layout! Learn more

10-Day Weather Forecast

Advertisements
Track Severe Weather on mobile